createdAt,value
2024-03-21T00:00:21.380Z,95398.00
2024-03-21T00:01:21.408Z,95401.00
2024-03-21T00:02:21.484Z,95401.00
2024-03-21T00:03:21.555Z,95400.00
2024-03-21T00:04:21.491Z,95402.00
2024-03-21T00:05:21.571Z,95401.00
2024-03-21T00:06:21.584Z,95404.00
2024-03-21T00:07:21.608Z,95402.00
2024-03-21T00:08:22.875Z,95402.00
2024-03-21T00:09:21.737Z,95404.00
2024-03-21T00:10:21.740Z,95403.00
2024-03-21T00:11:21.794Z,95406.00
2024-03-21T00:12:21.893Z,95406.00
2024-03-21T00:13:21.840Z,95408.00
2024-03-21T00:14:21.897Z,95407.00
2024-03-21T00:15:21.936Z,95408.00
2024-03-21T00:16:21.940Z,95408.00
2024-03-21T00:17:21.959Z,95406.00
2024-03-21T00:18:22.055Z,95407.00
2024-03-21T00:19:22.105Z,95404.00
2024-03-21T00:20:22.060Z,95404.00
2024-03-21T00:21:22.091Z,95404.00
2024-03-21T00:22:22.306Z,95402.00
2024-03-21T00:23:22.235Z,95404.00
2024-03-21T00:24:22.282Z,95404.00
2024-03-21T00:25:22.287Z,95404.00
2024-03-21T00:26:22.342Z,95405.00
2024-03-21T00:27:22.327Z,95401.00
2024-03-21T00:28:22.409Z,95401.00
2024-03-21T00:29:22.347Z,95401.00
2024-03-21T00:30:22.421Z,95404.00
2024-03-21T00:31:22.469Z,95404.00
2024-03-21T00:32:22.538Z,95403.00
2024-03-21T00:33:22.661Z,95402.00
2024-03-21T00:34:22.556Z,95402.00
2024-03-21T00:35:22.549Z,95403.00
2024-03-21T00:36:22.600Z,95405.00
2024-03-21T00:37:22.542Z,95405.00
2024-03-21T00:38:22.575Z,95408.00
2024-03-21T00:39:22.606Z,95411.00
2024-03-21T00:40:22.542Z,95408.00
2024-03-21T00:41:22.536Z,95411.00
2024-03-21T00:42:22.544Z,95411.00
2024-03-21T00:43:22.549Z,95410.00
2024-03-21T00:44:22.575Z,95410.00
2024-03-21T00:45:22.634Z,95410.00
2024-03-21T00:46:22.676Z,95410.00
2024-03-21T00:47:22.622Z,95408.00
2024-03-21T00:48:22.590Z,95410.00
2024-03-21T00:49:22.591Z,95413.00
2024-03-21T00:50:22.547Z,95413.00
2024-03-21T00:51:22.611Z,95413.00
2024-03-21T00:52:22.611Z,95412.00
2024-03-21T00:53:22.620Z,95413.00
2024-03-21T00:54:22.599Z,95413.00
2024-03-21T00:55:23.925Z,95412.00
2024-03-21T00:56:22.626Z,95411.00
2024-03-21T00:57:22.657Z,95409.00
2024-03-21T00:58:22.765Z,95409.00
2024-03-21T00:59:22.753Z,95407.00
2024-03-21T01:00:22.846Z,95409.00
2024-03-21T01:01:22.937Z,95407.00
2024-03-21T01:02:22.832Z,95409.00
2024-03-21T01:03:22.897Z,95408.00
2024-03-21T01:04:22.885Z,95408.00
2024-03-21T01:05:22.922Z,95406.00
2024-03-21T01:06:23.113Z,95407.00
2024-03-21T01:07:23.038Z,95406.00
2024-03-21T01:08:23.088Z,95404.00
2024-03-21T01:09:23.258Z,95405.00
2024-03-21T01:10:23.160Z,95404.00
2024-03-21T01:11:23.167Z,95406.00
2024-03-21T01:12:23.237Z,95403.00
2024-03-21T01:13:23.345Z,95404.00
2024-03-21T01:14:23.269Z,95407.00
2024-03-21T01:15:23.345Z,95404.00
2024-03-21T01:16:23.347Z,95404.00
2024-03-21T01:17:23.407Z,95405.00
2024-03-21T01:18:23.463Z,95403.00
2024-03-21T01:19:23.408Z,95401.00
2024-03-21T01:20:23.448Z,95399.00
2024-03-21T01:21:23.516Z,95402.00
2024-03-21T01:22:23.592Z,95400.00
2024-03-21T01:23:23.655Z,95399.00
2024-03-21T01:24:23.625Z,95402.00
2024-03-21T01:25:23.662Z,95397.00
2024-03-21T01:26:23.761Z,95399.00
2024-03-21T01:27:23.804Z,95403.00
2024-03-21T01:28:23.963Z,95402.00
2024-03-21T01:29:23.927Z,95401.00
2024-03-21T01:30:23.904Z,95399.00
2024-03-21T01:31:24.361Z,95402.00
2024-03-21T01:32:23.971Z,95399.00
2024-03-21T01:33:24.009Z,95397.00
2024-03-21T01:34:23.985Z,95397.00
2024-03-21T01:35:24.012Z,95395.00
2024-03-21T01:36:24.047Z,95394.00
2024-03-21T01:37:24.042Z,95394.00
2024-03-21T01:38:24.115Z,95393.00
2024-03-21T01:39:24.057Z,95394.00
2024-03-21T01:40:24.034Z,95394.00
2024-03-21T01:41:24.019Z,95396.00
2024-03-21T01:42:24.050Z,95394.00
2024-03-21T01:43:24.053Z,95395.00
2024-03-21T01:44:24.155Z,95395.00
2024-03-21T01:45:24.056Z,95392.00
2024-03-21T01:46:24.055Z,95393.00
2024-03-21T01:47:24.104Z,95392.00
2024-03-21T01:48:24.049Z,95393.00
2024-03-21T01:49:24.167Z,95393.00
2024-03-21T01:50:24.109Z,95392.00
2024-03-21T01:51:24.143Z,95392.00
2024-03-21T01:52:24.211Z,95394.00
2024-03-21T01:53:24.230Z,95395.00
2024-03-21T01:54:24.368Z,95397.00
2024-03-21T01:55:24.348Z,95397.00
2024-03-21T01:56:24.383Z,95396.00
2024-03-21T01:57:24.417Z,95398.00
2024-03-21T01:58:24.468Z,95396.00
2024-03-21T01:59:24.521Z,95396.00
2024-03-21T02:00:24.569Z,95397.00
2024-03-21T02:01:24.546Z,95401.00
2024-03-21T02:02:24.553Z,95400.00
2024-03-21T02:03:24.625Z,95400.00
2024-03-21T02:04:24.718Z,95398.00
2024-03-21T02:05:24.694Z,95398.00
2024-03-21T02:06:24.726Z,95399.00
2024-03-21T02:07:24.814Z,95399.00
2024-03-21T02:08:24.827Z,95398.00
2024-03-21T02:09:24.861Z,95397.00
2024-03-21T02:10:24.931Z,95394.00
2024-03-21T02:11:24.955Z,95397.00
2024-03-21T02:12:25.035Z,95394.00
2024-03-21T02:13:25.157Z,95395.00
2024-03-21T02:14:25.130Z,95394.00
2024-03-21T02:15:25.211Z,95392.00
2024-03-21T02:16:25.241Z,95393.00
2024-03-21T02:17:25.268Z,95392.00
2024-03-21T02:18:25.316Z,95390.00
2024-03-21T02:19:25.376Z,95393.00
2024-03-21T02:20:25.356Z,95392.00
2024-03-21T02:21:25.447Z,95395.00
2024-03-21T02:22:27.078Z,95393.00
2024-03-21T02:23:25.508Z,95393.00
2024-03-21T02:24:25.622Z,95393.00
2024-03-21T02:25:25.634Z,95396.00
2024-03-21T02:26:25.712Z,95396.00
2024-03-21T02:27:25.793Z,95395.00
2024-03-21T02:28:25.739Z,95397.00
2024-03-21T02:29:27.533Z,95395.00
2024-03-21T02:30:25.820Z,95397.00
2024-03-21T02:31:25.863Z,95397.00
2024-03-21T02:32:25.932Z,95397.00
2024-03-21T02:33:25.981Z,95396.00
2024-03-21T02:34:26.044Z,95396.00
2024-03-21T02:35:26.064Z,95396.00
2024-03-21T02:36:26.105Z,95398.00
2024-03-21T02:37:26.160Z,95398.00
2024-03-21T02:38:26.706Z,95398.00
2024-03-21T02:39:26.253Z,95400.00
2024-03-21T02:40:26.301Z,95399.00
2024-03-21T02:41:26.351Z,95402.00
2024-03-21T02:42:26.389Z,95400.00
2024-03-21T02:43:26.444Z,95399.00
2024-03-21T02:44:26.476Z,95400.00
2024-03-21T02:45:26.473Z,95397.00
2024-03-21T02:46:27.493Z,95395.00
2024-03-21T02:47:27.039Z,95394.00
2024-03-21T02:48:26.604Z,95392.00
2024-03-21T02:49:26.665Z,95392.00
2024-03-21T02:50:27.022Z,95392.00
2024-03-21T02:51:26.693Z,95393.00
2024-03-21T02:52:26.691Z,95396.00
2024-03-21T02:53:26.762Z,95396.00
2024-03-21T02:54:26.827Z,95396.00
2024-03-21T02:55:26.883Z,95395.00
2024-03-21T02:56:26.906Z,95394.00
2024-03-21T02:57:26.948Z,95393.00
2024-03-21T02:58:26.951Z,95393.00
2024-03-21T02:59:27.083Z,95393.00
2024-03-21T03:00:27.050Z,95392.00
2024-03-21T03:01:27.098Z,95390.00
2024-03-21T03:02:28.786Z,95394.00
2024-03-21T03:03:27.190Z,95394.00
2024-03-21T03:04:27.298Z,95396.00
2024-03-21T03:05:27.258Z,95398.00
2024-03-21T03:06:27.299Z,95398.00
2024-03-21T03:07:27.348Z,95396.00
2024-03-21T03:08:27.378Z,95396.00
2024-03-21T03:09:27.384Z,95396.00
2024-03-21T03:10:27.454Z,95395.00
2024-03-21T03:11:27.476Z,95397.00
2024-03-21T03:12:27.478Z,95397.00
2024-03-21T03:13:27.502Z,95397.00
2024-03-21T03:14:27.518Z,95397.00
2024-03-21T03:15:27.584Z,95396.00
2024-03-21T03:16:27.587Z,95395.00
2024-03-21T03:17:27.644Z,95393.00
2024-03-21T03:18:28.491Z,95394.00
2024-03-21T03:19:27.716Z,95389.00
2024-03-21T03:20:27.759Z,95389.00
2024-03-21T03:21:27.734Z,95386.00
2024-03-21T03:22:27.763Z,95386.00
2024-03-21T03:23:27.822Z,95385.00
2024-03-21T03:24:27.859Z,95383.00
2024-03-21T03:25:28.038Z,95383.00
2024-03-21T03:26:27.872Z,95383.00
2024-03-21T03:27:27.901Z,95385.00
2024-03-21T03:28:27.979Z,95387.00
2024-03-21T03:29:27.980Z,95389.00
2024-03-21T03:30:28.007Z,95387.00
2024-03-21T03:31:28.042Z,95386.00
2024-03-21T03:32:28.063Z,95384.00
2024-03-21T03:33:28.129Z,95382.00
2024-03-21T03:34:28.171Z,95380.00
2024-03-21T03:35:28.248Z,95378.00
2024-03-21T03:36:28.412Z,95377.00
2024-03-21T03:37:28.374Z,95377.00
2024-03-21T03:38:28.407Z,95376.00
2024-03-21T03:39:28.496Z,95377.00
2024-03-21T03:40:28.409Z,95378.00
2024-03-21T03:41:28.491Z,95381.00
2024-03-21T03:42:28.516Z,95384.00
2024-03-21T03:43:28.493Z,95381.00
2024-03-21T03:44:28.512Z,95380.00
2024-03-21T03:45:28.519Z,95378.00
2024-03-21T03:46:28.611Z,95372.00
2024-03-21T03:47:28.662Z,95369.00
2024-03-21T03:48:28.666Z,95368.00
2024-03-21T03:49:28.750Z,95368.00
2024-03-21T03:50:28.802Z,95370.00
2024-03-21T03:51:28.764Z,95373.00
2024-03-21T03:52:28.804Z,95377.00
2024-03-21T03:53:28.829Z,95379.00
2024-03-21T03:54:28.888Z,95381.00
2024-03-21T03:55:28.924Z,95382.00
2024-03-21T03:56:28.984Z,95390.00
2024-03-21T03:57:28.967Z,95393.00
2024-03-21T03:58:30.038Z,95399.00
2024-03-21T03:59:29.093Z,95404.00
2024-03-21T04:00:29.129Z,95409.00
2024-03-21T04:01:29.168Z,95415.00
2024-03-21T04:02:29.214Z,95416.00
2024-03-21T04:03:29.220Z,95417.00
2024-03-21T04:04:29.304Z,95417.00
2024-03-21T04:05:29.302Z,95417.00
2024-03-21T04:06:29.381Z,95415.00
2024-03-21T04:07:29.415Z,95415.00
2024-03-21T04:08:29.494Z,95417.00
2024-03-21T04:09:29.546Z,95424.00
2024-03-21T04:10:29.560Z,95425.00
2024-03-21T04:11:29.529Z,95430.00
2024-03-21T04:12:29.617Z,95431.00
2024-03-21T04:13:29.672Z,95429.00
2024-03-21T04:14:29.729Z,95428.00
2024-03-21T04:15:29.730Z,95427.00
2024-03-21T04:16:29.802Z,95431.00
2024-03-21T04:17:29.880Z,95429.00
2024-03-21T04:18:29.802Z,95429.00
2024-03-21T04:19:29.803Z,95425.00
2024-03-21T04:20:29.789Z,95420.00
2024-03-21T04:21:29.782Z,95414.00
2024-03-21T04:22:29.813Z,95414.00
2024-03-21T04:23:29.783Z,95415.00
2024-03-21T04:24:29.798Z,95416.00
2024-03-21T04:25:29.840Z,95416.00
2024-03-21T04:26:29.831Z,95414.00
2024-03-21T04:27:29.853Z,95414.00
2024-03-21T04:28:29.795Z,95410.00
2024-03-21T04:29:29.852Z,95409.00
2024-03-21T04:30:29.894Z,95409.00
2024-03-21T04:31:29.952Z,95409.00
2024-03-21T04:32:29.962Z,95404.00
2024-03-21T04:33:29.965Z,95404.00
2024-03-21T04:34:30.141Z,95403.00
2024-03-21T04:35:30.106Z,95400.00
2024-03-21T04:36:30.095Z,95401.00
2024-03-21T04:37:30.147Z,95403.00
2024-03-21T04:38:40.998Z,95405.00
2024-03-21T04:39:31.207Z,95407.00
2024-03-21T04:40:30.271Z,95404.00
2024-03-21T04:41:30.176Z,95400.00
2024-03-21T04:42:30.176Z,95399.00
2024-03-21T04:43:30.297Z,95399.00
2024-03-21T04:44:30.208Z,95401.00
2024-03-21T04:45:37.772Z,95402.00
2024-03-21T04:46:37.808Z,95404.00
2024-03-21T04:47:37.877Z,95404.00
2024-03-21T04:48:37.879Z,95404.00
2024-03-21T04:49:37.825Z,95401.00
2024-03-21T04:50:37.853Z,95402.00
2024-03-21T04:51:37.826Z,95400.00
2024-03-21T04:52:37.858Z,95397.00
2024-03-21T04:53:37.874Z,95397.00
2024-03-21T04:54:37.957Z,95398.00
2024-03-21T04:55:37.899Z,95400.00
2024-03-21T04:56:37.877Z,95402.00
2024-03-21T04:57:37.868Z,95403.00
2024-03-21T04:58:37.824Z,95403.00
2024-03-21T04:59:37.858Z,95404.00
2024-03-21T05:00:37.880Z,95405.00
2024-03-21T05:01:37.842Z,95404.00
2024-03-21T05:02:37.872Z,95406.00
2024-03-21T05:03:37.866Z,95404.00
2024-03-21T05:04:37.860Z,95402.00
2024-03-21T05:05:37.822Z,95401.00
2024-03-21T05:06:37.854Z,95400.00
2024-03-21T05:07:37.901Z,95403.00
2024-03-21T05:08:37.916Z,95406.00
2024-03-21T05:09:37.886Z,95408.00
2024-03-21T05:10:37.836Z,95408.00
2024-03-21T05:11:37.875Z,95405.00
2024-03-21T05:12:37.846Z,95407.00
2024-03-21T05:13:37.891Z,95410.00
2024-03-21T05:14:39.026Z,95409.00
2024-03-21T05:15:37.891Z,95410.00
2024-03-21T05:16:37.839Z,95414.00
2024-03-21T05:17:37.849Z,95418.00
2024-03-21T05:18:37.852Z,95417.00
2024-03-21T05:19:37.886Z,95417.00
2024-03-21T05:20:37.872Z,95412.00
2024-03-21T05:21:37.850Z,95407.00
2024-03-21T05:22:37.872Z,95405.00
2024-03-21T05:23:37.906Z,95404.00
2024-03-21T05:24:37.891Z,95405.00
2024-03-21T05:25:37.967Z,95406.00
2024-03-21T05:26:37.861Z,95410.00
2024-03-21T05:27:37.898Z,95412.00
2024-03-21T05:28:37.901Z,95416.00
2024-03-21T05:29:37.948Z,95418.00
2024-03-21T05:30:37.909Z,95417.00
2024-03-21T05:31:37.906Z,95416.00
2024-03-21T05:32:37.928Z,95413.00
2024-03-21T05:33:38.004Z,95410.00
2024-03-21T05:34:38.053Z,95408.00
2024-03-21T05:35:38.055Z,95411.00
2024-03-21T05:36:38.077Z,95410.00
2024-03-21T05:37:38.159Z,95410.00
2024-03-21T05:38:38.159Z,95413.00
2024-03-21T05:39:38.185Z,95413.00
2024-03-21T05:40:38.180Z,95414.00
2024-03-21T05:41:38.195Z,95413.00
2024-03-21T05:42:38.292Z,95414.00
2024-03-21T05:43:38.338Z,95410.00
2024-03-21T05:44:40.495Z,95407.00
2024-03-21T05:45:38.426Z,95406.00
2024-03-21T05:46:38.412Z,95407.00
2024-03-21T05:47:38.411Z,95407.00
2024-03-21T05:48:38.437Z,95405.00
2024-03-21T05:49:38.456Z,95409.00
2024-03-21T05:50:38.419Z,95405.00
2024-03-21T05:51:38.445Z,95407.00
2024-03-21T05:52:38.387Z,95402.00
2024-03-21T05:53:38.413Z,95400.00
2024-03-21T05:54:38.411Z,95398.00
2024-03-21T05:55:38.382Z,95393.00
2024-03-21T05:56:38.400Z,95391.00
2024-03-21T05:57:38.384Z,95388.00
2024-03-21T05:58:38.410Z,95386.00
2024-03-21T05:59:38.407Z,95383.00
2024-03-21T06:00:38.405Z,95384.00
2024-03-21T06:01:38.405Z,95386.00
2024-03-21T06:02:38.410Z,95389.00
2024-03-21T06:03:38.416Z,95388.00
2024-03-21T06:04:38.471Z,95388.00
2024-03-21T06:05:38.417Z,95384.00
2024-03-21T06:06:38.449Z,95382.00
2024-03-21T06:07:38.426Z,95382.00
2024-03-21T06:08:38.461Z,95381.00
2024-03-21T06:09:38.484Z,95381.00
2024-03-21T06:10:38.503Z,95382.00
2024-03-21T06:11:38.476Z,95383.00
2024-03-21T06:12:38.484Z,95387.00
2024-03-21T06:13:38.490Z,95384.00
2024-03-21T06:14:38.462Z,95385.00
2024-03-21T06:15:39.931Z,95385.00
2024-03-21T06:16:38.413Z,95387.00
2024-03-21T06:17:38.407Z,95392.00
2024-03-21T06:18:39.555Z,95397.00
2024-03-21T06:19:38.512Z,95400.00
2024-03-21T06:20:38.469Z,95402.00
2024-03-21T06:21:41.079Z,95403.00
2024-03-21T06:22:38.482Z,95403.00
2024-03-21T06:23:38.440Z,95400.00
2024-03-21T06:24:38.486Z,95401.00
2024-03-21T06:25:38.789Z,95403.00
2024-03-21T06:26:38.459Z,95409.00
2024-03-21T06:27:38.565Z,95420.00
2024-03-21T06:28:38.571Z,95428.00
2024-03-21T06:29:38.901Z,95434.00
2024-03-21T06:30:38.515Z,95439.00
2024-03-21T06:31:38.406Z,95443.00
2024-03-21T06:32:38.441Z,95445.00
2024-03-21T06:33:38.426Z,95448.00
2024-03-21T06:34:38.518Z,95449.00
2024-03-21T06:35:38.446Z,95453.00
2024-03-21T06:36:39.557Z,95459.00
2024-03-21T06:37:38.616Z,95465.00
2024-03-21T06:38:38.498Z,95469.00
2024-03-21T06:39:38.766Z,95477.00
2024-03-21T06:40:38.497Z,95480.00
2024-03-21T06:41:38.979Z,95482.00
2024-03-21T06:42:38.611Z,95485.00
2024-03-21T06:43:38.583Z,95487.00
2024-03-21T06:44:38.592Z,95490.00
2024-03-21T06:45:38.779Z,95490.00
2024-03-21T06:46:38.634Z,95492.00
2024-03-21T06:47:38.639Z,95495.00
2024-03-21T06:48:38.620Z,95492.00
2024-03-21T06:49:38.715Z,95491.00
2024-03-21T06:50:38.740Z,95492.00
2024-03-21T06:51:38.736Z,95489.00
2024-03-21T06:52:38.829Z,95492.00
2024-03-21T06:53:38.784Z,95490.00
2024-03-21T06:54:38.952Z,95493.00
2024-03-21T06:55:38.930Z,95494.00
2024-03-21T06:56:38.960Z,95496.00
2024-03-21T06:57:39.002Z,95498.00
2024-03-21T06:58:39.054Z,95501.00
2024-03-21T06:59:39.161Z,95498.00
2024-03-21T07:00:39.107Z,95497.00
2024-03-21T07:01:39.095Z,95496.00
2024-03-21T07:02:39.104Z,95497.00
2024-03-21T07:03:39.136Z,95497.00
2024-03-21T07:04:39.211Z,95498.00
2024-03-21T07:05:39.171Z,95498.00
2024-03-21T07:06:39.281Z,95500.00
2024-03-21T07:07:40.115Z,95497.00
2024-03-21T07:08:39.289Z,95492.00
2024-03-21T07:09:39.363Z,95496.00
2024-03-21T07:10:39.369Z,95496.00
2024-03-21T07:11:39.376Z,95493.00
2024-03-21T07:12:39.487Z,95492.00
2024-03-21T07:13:39.490Z,95490.00
2024-03-21T07:14:39.522Z,95492.00
2024-03-21T07:15:39.514Z,95489.00
2024-03-21T07:16:40.430Z,95487.00
2024-03-21T07:17:39.630Z,95485.00
2024-03-21T07:18:39.660Z,95482.00
2024-03-21T07:19:39.737Z,95481.00
2024-03-21T07:20:39.885Z,95485.00
2024-03-21T07:21:39.809Z,95489.00
2024-03-21T07:22:39.887Z,95489.00
2024-03-21T07:23:40.025Z,95488.00
2024-03-21T07:24:39.918Z,95488.00
2024-03-21T07:25:39.997Z,95489.00
2024-03-21T07:26:39.977Z,95488.00
2024-03-21T07:27:40.041Z,95486.00
2024-03-21T07:28:40.033Z,95484.00
2024-03-21T07:29:40.109Z,95483.00
2024-03-21T07:30:40.079Z,95483.00
2024-03-21T07:31:40.160Z,95481.00
2024-03-21T07:32:40.132Z,95484.00
2024-03-21T07:33:40.143Z,95488.00
2024-03-21T07:34:40.196Z,95489.00
2024-03-21T07:35:40.206Z,95494.00
2024-03-21T07:36:40.244Z,95495.00
2024-03-21T07:37:40.269Z,95499.00
2024-03-21T07:38:40.318Z,95498.00
2024-03-21T07:39:40.379Z,95494.00
2024-03-21T07:40:40.420Z,95491.00
2024-03-21T07:41:40.381Z,95492.00
2024-03-21T07:42:40.403Z,95489.00
2024-03-21T07:43:40.501Z,95492.00
2024-03-21T07:44:40.561Z,95494.00
2024-03-21T07:45:40.568Z,95495.00
2024-03-21T07:46:40.642Z,95494.00
2024-03-21T07:47:40.753Z,95492.00
2024-03-21T07:48:40.740Z,95490.00
2024-03-21T07:49:40.859Z,95490.00
2024-03-21T07:50:40.793Z,95493.00
2024-03-21T07:51:40.886Z,95492.00
2024-03-21T07:52:40.899Z,95494.00
2024-03-21T07:53:40.974Z,95494.00
2024-03-21T07:54:41.323Z,95497.00
2024-03-21T07:55:41.012Z,95493.00
2024-03-21T07:56:41.045Z,95495.00
2024-03-21T07:57:41.124Z,95494.00
2024-03-21T07:58:41.135Z,95495.00
2024-03-21T07:59:41.320Z,95495.00
2024-03-21T08:00:41.538Z,95493.00
2024-03-21T08:01:41.237Z,95495.00
2024-03-21T08:02:41.195Z,95494.00
2024-03-21T08:03:41.209Z,95494.00
2024-03-21T08:04:41.213Z,95492.00
2024-03-21T08:05:41.167Z,95495.00
2024-03-21T08:06:41.182Z,95495.00
2024-03-21T08:07:41.280Z,95492.00
2024-03-21T08:08:41.314Z,95493.00
2024-03-21T08:09:41.292Z,95495.00
2024-03-21T08:10:41.311Z,95494.00
2024-03-21T08:11:41.285Z,95496.00
2024-03-21T08:12:41.346Z,95497.00
2024-03-21T08:13:41.430Z,95497.00
2024-03-21T08:14:41.458Z,95498.00
2024-03-21T08:15:41.423Z,95499.00
2024-03-21T08:16:42.360Z,95497.00
2024-03-21T08:17:41.462Z,95498.00
2024-03-21T08:18:41.477Z,95498.00
2024-03-21T08:19:41.578Z,95494.00
2024-03-21T08:20:41.559Z,95494.00
2024-03-21T08:21:41.679Z,95494.00
2024-03-21T08:22:41.624Z,95496.00
2024-03-21T08:23:41.704Z,95495.00
2024-03-21T08:25:02.313Z,95497.00
2024-03-21T08:26:02.342Z,95499.00
2024-03-21T08:27:02.309Z,95500.00
2024-03-21T08:28:02.304Z,95500.00
2024-03-21T08:29:02.337Z,95501.00
2024-03-21T08:30:02.710Z,95502.00
2024-03-21T08:31:02.340Z,95503.00
2024-03-21T08:32:02.374Z,95505.00
2024-03-21T08:33:02.334Z,95507.00
2024-03-21T08:34:02.352Z,95508.00
2024-03-21T08:35:02.330Z,95511.00
2024-03-21T08:36:02.366Z,95510.00
2024-03-21T08:37:02.318Z,95510.00
2024-03-21T08:38:02.591Z,95510.00
2024-03-21T08:39:02.329Z,95509.00
2024-03-21T08:40:02.363Z,95506.00
2024-03-21T08:41:02.523Z,95510.00
2024-03-21T08:42:02.390Z,95509.00
2024-03-21T08:43:02.439Z,95511.00
2024-03-21T08:44:03.007Z,95512.00
2024-03-21T08:45:02.942Z,95510.00
2024-03-21T08:46:04.543Z,95512.00
2024-03-21T08:47:02.440Z,95515.00
2024-03-21T08:48:02.467Z,95514.00
2024-03-21T08:49:02.488Z,95516.00
2024-03-21T08:50:02.526Z,95515.00
2024-03-21T08:51:02.408Z,95511.00
2024-03-21T08:52:02.484Z,95512.00
2024-03-21T08:53:02.492Z,95511.00
2024-03-21T08:54:02.433Z,95512.00
2024-03-21T08:55:02.514Z,95511.00
2024-03-21T08:56:02.530Z,95512.00
2024-03-21T08:57:02.478Z,95513.00
2024-03-21T08:58:02.507Z,95511.00
2024-03-21T08:59:02.498Z,95511.00
2024-03-21T09:00:02.502Z,95513.00
2024-03-21T09:01:02.540Z,95513.00
2024-03-21T09:02:02.567Z,95515.00
2024-03-21T09:03:02.480Z,95515.00
2024-03-21T09:04:02.630Z,95515.00
2024-03-21T09:05:02.502Z,95515.00
2024-03-21T09:06:02.481Z,95520.00
2024-03-21T09:07:02.591Z,95523.00
2024-03-21T09:08:02.522Z,95522.00
2024-03-21T09:09:02.536Z,95523.00
2024-03-21T09:10:02.508Z,95523.00
2024-03-21T09:11:02.491Z,95525.00
2024-03-21T09:12:02.532Z,95526.00
2024-03-21T09:13:02.505Z,95525.00
2024-03-21T09:14:02.638Z,95528.00
2024-03-21T09:15:02.614Z,95529.00
2024-03-21T09:16:02.467Z,95530.00
2024-03-21T09:17:02.536Z,95530.00
2024-03-21T09:18:02.530Z,95533.00
2024-03-21T09:19:02.770Z,95531.00
2024-03-21T09:20:03.391Z,95533.00
2024-03-21T09:21:02.628Z,95532.00
2024-03-21T09:22:02.548Z,95534.00
2024-03-21T09:23:02.566Z,95534.00
2024-03-21T09:24:02.496Z,95535.00
2024-03-21T09:25:02.540Z,95537.00
2024-03-21T09:26:02.580Z,95538.00
2024-03-21T09:27:02.894Z,95537.00
2024-03-21T09:28:02.816Z,95539.00
2024-03-21T09:29:02.934Z,95539.00
2024-03-21T09:30:02.529Z,95539.00
2024-03-21T09:31:02.528Z,95538.00
2024-03-21T09:32:02.640Z,95538.00
2024-03-21T09:33:02.524Z,95538.00
2024-03-21T09:34:02.572Z,95541.00
2024-03-21T09:35:02.664Z,95544.00
2024-03-21T09:36:02.611Z,95543.00
2024-03-21T09:37:02.577Z,95544.00
2024-03-21T09:38:02.594Z,95545.00
2024-03-21T09:39:02.559Z,95544.00
2024-03-21T09:40:02.576Z,95546.00
2024-03-21T09:41:02.632Z,95548.00
2024-03-21T09:42:02.570Z,95547.00
2024-03-21T09:43:02.572Z,95547.00
2024-03-21T09:44:02.564Z,95548.00
2024-03-21T09:45:02.651Z,95550.00
2024-03-21T09:46:02.646Z,95550.00
2024-03-21T09:47:02.812Z,95548.00
2024-03-21T09:48:02.562Z,95552.00
2024-03-21T09:49:02.584Z,95552.00
2024-03-21T09:50:02.693Z,95552.00
2024-03-21T09:51:02.643Z,95553.00
2024-03-21T09:52:02.673Z,95556.00
2024-03-21T09:53:02.701Z,95555.00
2024-03-21T09:54:03.203Z,95555.00
2024-03-21T09:55:02.918Z,95557.00
2024-03-21T09:56:02.833Z,95558.00
2024-03-21T09:57:02.914Z,95559.00
2024-03-21T09:58:02.914Z,95563.00
2024-03-21T09:59:02.991Z,95563.00
2024-03-21T10:00:03.062Z,95567.00
2024-03-21T10:01:03.061Z,95568.00
2024-03-21T10:02:03.623Z,95569.00
2024-03-21T10:03:03.371Z,95568.00
2024-03-21T10:04:03.216Z,95571.00
2024-03-21T10:05:03.405Z,95568.00
2024-03-21T10:06:03.275Z,95568.00
2024-03-21T10:07:03.406Z,95571.00
2024-03-21T10:08:03.432Z,95571.00
2024-03-21T10:09:03.412Z,95574.00
2024-03-21T10:10:03.500Z,95575.00
2024-03-21T10:11:03.550Z,95574.00
2024-03-21T10:12:03.543Z,95576.00
2024-03-21T10:13:03.551Z,95576.00
2024-03-21T10:14:03.666Z,95579.00
2024-03-21T10:15:03.780Z,95580.00
2024-03-21T10:16:04.767Z,95580.00
2024-03-21T10:17:03.780Z,95579.00
2024-03-21T10:18:03.785Z,95579.00
2024-03-21T10:19:03.886Z,95576.00
2024-03-21T10:20:03.945Z,95576.00
2024-03-21T10:21:03.913Z,95575.00
2024-03-21T10:22:03.925Z,95574.00
2024-03-21T10:23:04.070Z,95572.00
2024-03-21T10:24:04.458Z,95572.00
2024-03-21T10:25:04.638Z,95570.00
2024-03-21T10:26:04.258Z,95571.00
2024-03-21T10:27:04.596Z,95571.00
2024-03-21T10:28:04.361Z,95569.00
2024-03-21T10:29:04.291Z,95568.00
2024-03-21T10:30:05.141Z,95569.00
2024-03-21T10:31:04.330Z,95568.00
2024-03-21T10:32:04.347Z,95567.00
2024-03-21T10:33:04.373Z,95567.00
2024-03-21T10:34:04.377Z,95568.00
2024-03-21T10:35:14.786Z,95571.00
2024-03-21T10:36:05.326Z,95573.00
2024-03-21T10:37:04.324Z,95570.00
2024-03-21T10:38:04.327Z,95570.00
2024-03-21T10:39:04.318Z,95568.00
2024-03-21T10:40:04.398Z,95564.00
2024-03-21T10:41:04.357Z,95562.00
2024-03-21T10:42:04.480Z,95563.00
2024-03-21T10:43:04.369Z,95561.00
2024-03-21T10:44:04.339Z,95563.00
2024-03-21T10:45:04.444Z,95563.00
2024-03-21T10:46:04.562Z,95559.00
2024-03-21T10:47:06.061Z,95562.00
2024-03-21T10:48:04.792Z,95561.00
2024-03-21T10:49:04.822Z,95562.00
2024-03-21T10:50:05.350Z,95567.00
2024-03-21T10:51:04.943Z,95562.00
2024-03-21T10:52:04.857Z,95563.00
2024-03-21T10:53:08.180Z,95560.00
2024-03-21T10:54:06.462Z,95559.00
2024-03-21T10:56:04.841Z,95557.00
2024-03-21T10:57:04.703Z,95556.00
2024-03-21T10:58:04.744Z,95552.00
2024-03-21T10:59:04.683Z,95554.00
2024-03-21T11:00:04.735Z,95554.00
2024-03-21T11:01:04.760Z,95555.00
2024-03-21T11:02:04.818Z,95556.00
2024-03-21T11:03:04.706Z,95558.00
2024-03-21T11:04:04.707Z,95559.00
2024-03-21T11:05:04.759Z,95558.00
2024-03-21T11:06:04.745Z,95556.00
2024-03-21T11:07:04.712Z,95556.00
2024-03-21T11:08:04.742Z,95554.00
2024-03-21T11:09:04.696Z,95554.00
2024-03-21T11:10:04.739Z,95551.00
2024-03-21T11:11:04.792Z,95549.00
2024-03-21T11:12:04.727Z,95546.00
2024-03-21T11:13:05.774Z,95544.00
2024-03-21T11:14:04.727Z,95543.00
2024-03-21T11:15:04.766Z,95542.00
2024-03-21T11:16:04.760Z,95542.00
2024-03-21T11:17:04.756Z,95544.00
2024-03-21T11:18:04.735Z,95544.00
2024-03-21T11:19:04.688Z,95543.00
2024-03-21T11:20:04.850Z,95543.00
2024-03-21T11:21:04.812Z,95540.00
2024-03-21T11:22:04.755Z,95539.00
2024-03-21T11:23:04.731Z,95539.00
2024-03-21T11:24:04.736Z,95541.00
2024-03-21T11:25:04.745Z,95539.00
2024-03-21T11:26:04.765Z,95539.00
2024-03-21T11:27:04.727Z,95537.00
2024-03-21T11:28:04.742Z,95534.00
2024-03-21T11:29:14.673Z,95532.00
2024-03-21T11:30:10.619Z,95532.00
2024-03-21T11:31:04.766Z,95531.00
2024-03-21T11:32:04.781Z,95532.00
2024-03-21T11:33:04.747Z,95530.00
2024-03-21T11:34:04.784Z,95526.00
2024-03-21T11:35:04.797Z,95528.00
2024-03-21T11:36:04.796Z,95525.00
2024-03-21T11:37:04.747Z,95525.00
2024-03-21T11:38:04.816Z,95527.00
2024-03-21T11:39:04.786Z,95524.00
2024-03-21T11:40:04.777Z,95525.00
2024-03-21T11:41:04.769Z,95522.00
2024-03-21T11:42:04.764Z,95521.00
2024-03-21T11:43:04.788Z,95522.00
2024-03-21T11:44:04.788Z,95520.00
2024-03-21T11:45:06.310Z,95522.00
2024-03-21T11:46:05.417Z,95519.00